Terminal Aerodrome Forecast
Issued by NWS Quad Cities IA IL

Home | Current Version | Previous Version | Text Only | Print | Product List | Glossary On
Versions: 1 2 3 4 5 6 7 8 9 10 11 12 13 14 15 16 17
000
FTUS43 KDVN 282332
TAFMLI
TAF
KMLI 282332Z 2900/2924 21004KT P6SM VCSH SCT080 BKN200
     FM290100 20005KT P6SM VCTS SCT060CB BKN150
      TEMPO 2901/2903 4SM TSRA BR BKN030CB
     FM290500 24004KT P6SM BKN060 BKN200
     FM290900 32006KT P6SM SCT060 SCT250
     FM291700 31011KT P6SM SCT060=

USA.gov is the U.S. government's official web portal to all federal, state and local government web resources and services.